sensor_id;sensor_type;location;lat;lon;timestamp;temperature;humidity
20174;DHT22;10246;50.620;7.232;2023-12-20T00:02:14;7.90;31.10
20174;DHT22;10246;50.620;7.232;2023-12-20T00:04:41;8.00;31.20
20174;DHT22;10246;50.620;7.232;2023-12-20T00:07:07;7.90;31.50
20174;DHT22;10246;50.620;7.232;2023-12-20T00:09:34;7.90;31.60
20174;DHT22;10246;50.620;7.232;2023-12-20T00:12:01;7.90;32.10
20174;DHT22;10246;50.620;7.232;2023-12-20T00:14:29;7.90;32.10
20174;DHT22;10246;50.620;7.232;2023-12-20T00:16:55;7.90;31.80
20174;DHT22;10246;50.620;7.232;2023-12-20T00:19:22;7.90;32.10
20174;DHT22;10246;50.620;7.232;2023-12-20T00:21:49;7.90;32.40
20174;DHT22;10246;50.620;7.232;2023-12-20T00:24:16;7.90;32.10
20174;DHT22;10246;50.620;7.232;2023-12-20T00:26:43;7.90;32.10
20174;DHT22;10246;50.620;7.232;2023-12-20T00:29:10;7.90;32.30
20174;DHT22;10246;50.620;7.232;2023-12-20T00:31:38;7.90;32.50
20174;DHT22;10246;50.620;7.232;2023-12-20T00:34:04;7.90;32.90
20174;DHT22;10246;50.620;7.232;2023-12-20T00:36:31;7.90;32.70
20174;DHT22;10246;50.620;7.232;2023-12-20T00:38:58;8.00;32.60
20174;DHT22;10246;50.620;7.232;2023-12-20T00:41:27;8.00;32.60
20174;DHT22;10246;50.620;7.232;2023-12-20T00:43:54;7.90;32.50
20174;DHT22;10246;50.620;7.232;2023-12-20T00:46:20;7.90;32.60
20174;DHT22;10246;50.620;7.232;2023-12-20T00:48:48;7.90;32.70
20174;DHT22;10246;50.620;7.232;2023-12-20T00:51:15;7.90;32.80
20174;DHT22;10246;50.620;7.232;2023-12-20T00:53:42;7.90;33.00
20174;DHT22;10246;50.620;7.232;2023-12-20T00:56:08;7.90;33.50
20174;DHT22;10246;50.620;7.232;2023-12-20T00:58:35;8.00;33.40
20174;DHT22;10246;50.620;7.232;2023-12-20T01:01:02;7.90;33.30
20174;DHT22;10246;50.620;7.232;2023-12-20T01:03:29;8.00;33.40
20174;DHT22;10246;50.620;7.232;2023-12-20T01:05:57;8.00;33.30
20174;DHT22;10246;50.620;7.232;2023-12-20T01:08:24;8.00;33.50
20174;DHT22;10246;50.620;7.232;2023-12-20T01:10:50;8.00;33.90
20174;DHT22;10246;50.620;7.232;2023-12-20T01:13:17;8.00;33.40
20174;DHT22;10246;50.620;7.232;2023-12-20T01:15:44;8.00;33.60
20174;DHT22;10246;50.620;7.232;2023-12-20T01:18:10;8.00;33.60
20174;DHT22;10246;50.620;7.232;2023-12-20T01:20:37;8.00;33.60
20174;DHT22;10246;50.620;7.232;2023-12-20T01:23:05;8.00;34.50
20174;DHT22;10246;50.620;7.232;2023-12-20T01:25:32;8.00;34.30
20174;DHT22;10246;50.620;7.232;2023-12-20T01:27:58;8.00;34.30
20174;DHT22;10246;50.620;7.232;2023-12-20T01:30:25;8.00;34.80
20174;DHT22;10246;50.620;7.232;2023-12-20T01:32:51;8.10;34.40
20174;DHT22;10246;50.620;7.232;2023-12-20T01:35:18;8.10;34.30
20174;DHT22;10246;50.620;7.232;2023-12-20T01:37:45;8.10;34.60
20174;DHT22;10246;50.620;7.232;2023-12-20T01:40:13;8.20;34.40
20174;DHT22;10246;50.620;7.232;2023-12-20T01:42:40;8.20;34.10
20174;DHT22;10246;50.620;7.232;2023-12-20T01:45:08;8.30;34.00
20174;DHT22;10246;50.620;7.232;2023-12-20T01:47:35;8.40;33.80
20174;DHT22;10246;50.620;7.232;2023-12-20T01:50:02;8.30;33.40
20174;DHT22;10246;50.620;7.232;2023-12-20T01:52:30;8.30;33.20
20174;DHT22;10246;50.620;7.232;2023-12-20T01:54:59;8.30;33.40
20174;DHT22;10246;50.620;7.232;2023-12-20T01:57:29;8.30;33.40
20174;DHT22;10246;50.620;7.232;2023-12-20T01:59:56;8.50;33.70
20174;DHT22;10246;50.620;7.232;2023-12-20T02:02:23;8.50;33.00
20174;DHT22;10246;50.620;7.232;2023-12-20T02:04:50;8.50;32.30
20174;DHT22;10246;50.620;7.232;2023-12-20T02:07:18;8.50;32.30
20174;DHT22;10246;50.620;7.232;2023-12-20T02:09:45;8.60;31.30
20174;DHT22;10246;50.620;7.232;2023-12-20T02:12:12;8.70;30.90
20174;DHT22;10246;50.620;7.232;2023-12-20T02:14:40;8.70;29.90
20174;DHT22;10246;50.620;7.232;2023-12-20T02:17:07;8.70;29.90
20174;DHT22;10246;50.620;7.232;2023-12-20T02:19:34;8.70;29.80
20174;DHT22;10246;50.620;7.232;2023-12-20T02:22:11;8.70;29.50
20174;DHT22;10246;50.620;7.232;2023-12-20T02:24:38;8.70;29.40
20174;DHT22;10246;50.620;7.232;2023-12-20T02:27:07;8.60;28.40
20174;DHT22;10246;50.620;7.232;2023-12-20T02:29:36;8.70;28.20
20174;DHT22;10246;50.620;7.232;2023-12-20T02:32:03;8.60;28.40
20174;DHT22;10246;50.620;7.232;2023-12-20T02:34:30;8.70;28.20
20174;DHT22;10246;50.620;7.232;2023-12-20T02:36:57;8.60;27.20
20174;DHT22;10246;50.620;7.232;2023-12-20T02:39:25;8.60;26.60
20174;DHT22;10246;50.620;7.232;2023-12-20T02:41:52;8.50;24.50
20174;DHT22;10246;50.620;7.232;2023-12-20T02:44:18;8.40;22.90
20174;DHT22;10246;50.620;7.232;2023-12-20T02:46:45;8.40;20.70
20174;DHT22;10246;50.620;7.232;2023-12-20T02:49:12;8.30;20.20
20174;DHT22;10246;50.620;7.232;2023-12-20T02:51:39;8.20;19.70
20174;DHT22;10246;50.620;7.232;2023-12-20T02:54:05;8.20;19.40
20174;DHT22;10246;50.620;7.232;2023-12-20T02:56:33;8.10;18.50
20174;DHT22;10246;50.620;7.232;2023-12-20T02:59:00;8.10;18.80
20174;DHT22;10246;50.620;7.232;2023-12-20T03:01:28;8.00;19.80
20174;DHT22;10246;50.620;7.232;2023-12-20T03:03:55;8.00;18.90
20174;DHT22;10246;50.620;7.232;2023-12-20T03:06:21;7.90;18.60
20174;DHT22;10246;50.620;7.232;2023-12-20T03:08:48;7.80;19.10
20174;DHT22;10246;50.620;7.232;2023-12-20T03:11:15;7.90;19.00
20174;DHT22;10246;50.620;7.232;2023-12-20T03:13:43;7.90;18.60
20174;DHT22;10246;50.620;7.232;2023-12-20T03:16:10;7.80;18.60
20174;DHT22;10246;50.620;7.232;2023-12-20T03:18:36;7.80;18.00
20174;DHT22;10246;50.620;7.232;2023-12-20T03:21:04;7.70;16.90
20174;DHT22;10246;50.620;7.232;2023-12-20T03:23:31;7.70;18.00
20174;DHT22;10246;50.620;7.232;2023-12-20T03:25:59;7.60;17.00
20174;DHT22;10246;50.620;7.232;2023-12-20T03:28:27;7.70;17.30
20174;DHT22;10246;50.620;7.232;2023-12-20T03:30:55;7.60;18.30
20174;DHT22;10246;50.620;7.232;2023-12-20T03:33:25;7.60;19.20
20174;DHT22;10246;50.620;7.232;2023-12-20T03:35:56;7.60;18.20
20174;DHT22;10246;50.620;7.232;2023-12-20T03:38:22;7.60;17.90
20174;DHT22;10246;50.620;7.232;2023-12-20T03:40:50;7.60;18.00
20174;DHT22;10246;50.620;7.232;2023-12-20T03:43:17;7.50;17.90
20174;DHT22;10246;50.620;7.232;2023-12-20T03:45:43;7.50;17.20
20174;DHT22;10246;50.620;7.232;2023-12-20T03:48:12;7.50;17.40
20174;DHT22;10246;50.620;7.232;2023-12-20T03:50:39;7.50;17.90
20174;DHT22;10246;50.620;7.232;2023-12-20T03:53:06;7.50;18.00
20174;DHT22;10246;50.620;7.232;2023-12-20T03:55:33;7.50;17.90
20174;DHT22;10246;50.620;7.232;2023-12-20T03:58:00;7.50;18.10
20174;DHT22;10246;50.620;7.232;2023-12-20T04:00:26;7.60;17.20
20174;DHT22;10246;50.620;7.232;2023-12-20T04:02:53;7.50;16.30
20174;DHT22;10246;50.620;7.232;2023-12-20T04:05:21;7.60;16.00
20174;DHT22;10246;50.620;7.232;2023-12-20T04:07:48;7.50;16.10
20174;DHT22;10246;50.620;7.232;2023-12-20T04:10:15;7.60;16.80
20174;DHT22;10246;50.620;7.232;2023-12-20T04:12:42;7.60;15.80
20174;DHT22;10246;50.620;7.232;2023-12-20T04:15:09;7.60;16.20
20174;DHT22;10246;50.620;7.232;2023-12-20T04:17:37;7.50;16.60
20174;DHT22;10246;50.620;7.232;2023-12-20T04:20:05;7.60;16.00
20174;DHT22;10246;50.620;7.232;2023-12-20T04:22:33;7.60;16.40
20174;DHT22;10246;50.620;7.232;2023-12-20T04:25:00;7.60;15.90
20174;DHT22;10246;50.620;7.232;2023-12-20T04:27:26;7.60;15.50
20174;DHT22;10246;50.620;7.232;2023-12-20T04:29:53;7.60;15.50
20174;DHT22;10246;50.620;7.232;2023-12-20T04:32:20;7.60;15.10
20174;DHT22;10246;50.620;7.232;2023-12-20T04:34:49;7.60;15.50
20174;DHT22;10246;50.620;7.232;2023-12-20T04:37:19;7.60;15.50
20174;DHT22;10246;50.620;7.232;2023-12-20T04:39:47;7.60;15.50
20174;DHT22;10246;50.620;7.232;2023-12-20T04:42:14;7.60;16.40
20174;DHT22;10246;50.620;7.232;2023-12-20T04:44:41;7.60;15.80
20174;DHT22;10246;50.620;7.232;2023-12-20T04:47:09;7.60;15.00
20174;DHT22;10246;50.620;7.232;2023-12-20T04:49:36;7.70;14.60
20174;DHT22;10246;50.620;7.232;2023-12-20T04:52:03;7.70;14.70
20174;DHT22;10246;50.620;7.232;2023-12-20T04:54:30;7.70;14.60
20174;DHT22;10246;50.620;7.232;2023-12-20T04:56:58;7.70;14.20
20174;DHT22;10246;50.620;7.232;2023-12-20T04:59:24;7.70;15.40
20174;DHT22;10246;50.620;7.232;2023-12-20T05:01:51;7.70;16.30
20174;DHT22;10246;50.620;7.232;2023-12-20T05:04:18;7.60;16.10
20174;DHT22;10246;50.620;7.232;2023-12-20T05:06:45;7.60;15.80
20174;DHT22;10246;50.620;7.232;2023-12-20T05:09:12;7.70;15.90
20174;DHT22;10246;50.620;7.232;2023-12-20T05:11:38;7.70;15.90
20174;DHT22;10246;50.620;7.232;2023-12-20T05:14:06;7.70;14.90
20174;DHT22;10246;50.620;7.232;2023-12-20T05:16:33;7.70;14.50
20174;DHT22;10246;50.620;7.232;2023-12-20T05:19:00;7.80;14.50
20174;DHT22;10246;50.620;7.232;2023-12-20T05:21:32;7.70;15.20
20174;DHT22;10246;50.620;7.232;2023-12-20T05:23:58;7.70;15.80
20174;DHT22;10246;50.620;7.232;2023-12-20T05:26:27;7.70;16.30
20174;DHT22;10246;50.620;7.232;2023-12-20T05:28:55;7.70;15.00
20174;DHT22;10246;50.620;7.232;2023-12-20T05:31:23;7.70;14.80
20174;DHT22;10246;50.620;7.232;2023-12-20T05:33:50;7.70;15.50
20174;DHT22;10246;50.620;7.232;2023-12-20T05:36:18;7.70;16.40
20174;DHT22;10246;50.620;7.232;2023-12-20T05:38:45;7.60;17.40
20174;DHT22;10246;50.620;7.232;2023-12-20T05:41:12;7.60;17.20
20174;DHT22;10246;50.620;7.232;2023-12-20T05:43:38;7.60;16.00
20174;DHT22;10246;50.620;7.232;2023-12-20T05:46:05;7.60;15.20
20174;DHT22;10246;50.620;7.232;2023-12-20T05:48:34;7.60;15.30
20174;DHT22;10246;50.620;7.232;2023-12-20T05:51:04;7.60;15.30
20174;DHT22;10246;50.620;7.232;2023-12-20T05:53:30;7.60;15.90
20174;DHT22;10246;50.620;7.232;2023-12-20T05:55:57;7.60;14.80
20174;DHT22;10246;50.620;7.232;2023-12-20T05:58:24;7.70;14.10
20174;DHT22;10246;50.620;7.232;2023-12-20T06:00:50;7.70;14.60
20174;DHT22;10246;50.620;7.232;2023-12-20T06:03:17;7.70;14.20
20174;DHT22;10246;50.620;7.232;2023-12-20T06:05:45;7.70;14.00
20174;DHT22;10246;50.620;7.232;2023-12-20T06:08:12;7.70;13.80
20174;DHT22;10246;50.620;7.232;2023-12-20T06:10:38;7.80;12.50
20174;DHT22;10246;50.620;7.232;2023-12-20T06:13:05;7.70;12.50
20174;DHT22;10246;50.620;7.232;2023-12-20T06:15:32;7.70;12.60
20174;DHT22;10246;50.620;7.232;2023-12-20T06:17:59;7.60;12.50
20174;DHT22;10246;50.620;7.232;2023-12-20T06:20:29;7.70;13.40
20174;DHT22;10246;50.620;7.232;2023-12-20T06:22:57;7.60;12.60
20174;DHT22;10246;50.620;7.232;2023-12-20T06:25:24;7.70;12.50
20174;DHT22;10246;50.620;7.232;2023-12-20T06:27:51;7.60;12.10
20174;DHT22;10246;50.620;7.232;2023-12-20T06:30:18;7.60;12.70
20174;DHT22;10246;50.620;7.232;2023-12-20T06:32:44;7.60;13.10
20174;DHT22;10246;50.620;7.232;2023-12-20T06:35:12;7.60;12.80
20174;DHT22;10246;50.620;7.232;2023-12-20T06:37:39;7.60;12.90
20174;DHT22;10246;50.620;7.232;2023-12-20T06:40:09;7.60;14.20
20174;DHT22;10246;50.620;7.232;2023-12-20T06:42:36;7.50;14.80
20174;DHT22;10246;50.620;7.232;2023-12-20T06:45:04;7.50;15.90
20174;DHT22;10246;50.620;7.232;2023-12-20T06:47:31;7.50;15.30
20174;DHT22;10246;50.620;7.232;2023-12-20T06:49:57;7.50;15.00
20174;DHT22;10246;50.620;7.232;2023-12-20T06:52:24;7.50;13.50
20174;DHT22;10246;50.620;7.232;2023-12-20T06:54:51;7.50;13.40
20174;DHT22;10246;50.620;7.232;2023-12-20T06:57:19;7.60;13.20
20174;DHT22;10246;50.620;7.232;2023-12-20T06:59:45;7.60;13.10
20174;DHT22;10246;50.620;7.232;2023-12-20T07:02:12;7.60;12.80
20174;DHT22;10246;50.620;7.232;2023-12-20T07:04:39;7.70;13.40
20174;DHT22;10246;50.620;7.232;2023-12-20T07:07:06;7.60;13.90
20174;DHT22;10246;50.620;7.232;2023-12-20T07:09:33;7.60;13.80
20174;DHT22;10246;50.620;7.232;2023-12-20T07:11:59;7.60;14.30
20174;DHT22;10246;50.620;7.232;2023-12-20T07:14:28;7.60;13.30
20174;DHT22;10246;50.620;7.232;2023-12-20T07:16:54;7.60;13.10
20174;DHT22;10246;50.620;7.232;2023-12-20T07:19:21;7.60;13.70
20174;DHT22;10246;50.620;7.232;2023-12-20T07:21:48;7.70;13.30
20174;DHT22;10246;50.620;7.232;2023-12-20T07:24:14;7.70;12.70
20174;DHT22;10246;50.620;7.232;2023-12-20T07:26:41;7.60;13.30
20174;DHT22;10246;50.620;7.232;2023-12-20T07:29:08;7.70;13.50
20174;DHT22;10246;50.620;7.232;2023-12-20T07:31:36;7.60;13.10
20174;DHT22;10246;50.620;7.232;2023-12-20T07:34:03;7.70;11.80
20174;DHT22;10246;50.620;7.232;2023-12-20T07:36:31;7.70;12.40
20174;DHT22;10246;50.620;7.232;2023-12-20T07:38:57;7.70;12.00
20174;DHT22;10246;50.620;7.232;2023-12-20T07:41:24;7.70;12.50
20174;DHT22;10246;50.620;7.232;2023-12-20T07:43:51;7.80;12.50
20174;DHT22;10246;50.620;7.232;2023-12-20T07:46:20;7.80;11.70
20174;DHT22;10246;50.620;7.232;2023-12-20T07:48:50;7.80;11.70
20174;DHT22;10246;50.620;7.232;2023-12-20T07:51:17;7.80;11.70
20174;DHT22;10246;50.620;7.232;2023-12-20T07:53:43;7.90;11.30
20174;DHT22;10246;50.620;7.232;2023-12-20T07:56:14;7.80;11.40
20174;DHT22;10246;50.620;7.232;2023-12-20T07:58:41;7.80;10.60
20174;DHT22;10246;50.620;7.232;2023-12-20T08:01:08;7.80;11.70
20174;DHT22;10246;50.620;7.232;2023-12-20T08:03:35;7.80;11.20
20174;DHT22;10246;50.620;7.232;2023-12-20T08:06:04;7.80;11.50
20174;DHT22;10246;50.620;7.232;2023-12-20T08:08:31;7.80;11.70
20174;DHT22;10246;50.620;7.232;2023-12-20T08:10:57;7.80;12.20
20174;DHT22;10246;50.620;7.232;2023-12-20T08:13:25;7.80;11.70
20174;DHT22;10246;50.620;7.232;2023-12-20T08:15:55;7.80;11.20
20174;DHT22;10246;50.620;7.232;2023-12-20T08:18:22;7.80;11.00
20174;DHT22;10246;50.620;7.232;2023-12-20T08:20:49;7.80;10.20
20174;DHT22;10246;50.620;7.232;2023-12-20T08:23:19;7.90;9.40
20174;DHT22;10246;50.620;7.232;2023-12-20T08:25:49;7.90;9.90
20174;DHT22;10246;50.620;7.232;2023-12-20T08:28:16;7.90;9.90
20174;DHT22;10246;50.620;7.232;2023-12-20T08:30:42;7.90;8.80
20174;DHT22;10246;50.620;7.232;2023-12-20T08:33:09;7.90;7.80
20174;DHT22;10246;50.620;7.232;2023-12-20T08:35:38;8.00;7.90
20174;DHT22;10246;50.620;7.232;2023-12-20T08:38:05;8.00;7.80
20174;DHT22;10246;50.620;7.232;2023-12-20T08:40:33;7.90;8.20
20174;DHT22;10246;50.620;7.232;2023-12-20T08:42:59;8.00;7.90
20174;DHT22;10246;50.620;7.232;2023-12-20T08:45:26;8.00;8.00
20174;DHT22;10246;50.620;7.232;2023-12-20T08:47:53;8.00;7.90
20174;DHT22;10246;50.620;7.232;2023-12-20T08:50:19;7.90;7.50
20174;DHT22;10246;50.620;7.232;2023-12-20T08:52:46;8.00;7.00
20174;DHT22;10246;50.620;7.232;2023-12-20T08:55:13;8.10;5.90
20174;DHT22;10246;50.620;7.232;2023-12-20T08:57:43;8.10;5.00
20174;DHT22;10246;50.620;7.232;2023-12-20T09:00:10;8.10;4.40
20174;DHT22;10246;50.620;7.232;2023-12-20T09:02:37;8.10;5.10
20174;DHT22;10246;50.620;7.232;2023-12-20T09:05:04;8.10;4.70
20174;DHT22;10246;50.620;7.232;2023-12-20T09:07:31;8.20;4.90
20174;DHT22;10246;50.620;7.232;2023-12-20T09:09:58;8.20;4.60
20174;DHT22;10246;50.620;7.232;2023-12-20T09:12:24;8.20;4.90
20174;DHT22;10246;50.620;7.232;2023-12-20T09:14:52;8.20;4.80
20174;DHT22;10246;50.620;7.232;2023-12-20T09:17:19;8.30;3.00
20174;DHT22;10246;50.620;7.232;2023-12-20T09:19:48;8.30;3.60
20174;DHT22;10246;50.620;7.232;2023-12-20T09:22:15;8.40;3.10
20174;DHT22;10246;50.620;7.232;2023-12-20T09:24:41;8.30;3.30
20174;DHT22;10246;50.620;7.232;2023-12-20T09:27:08;8.40;1.60
20174;DHT22;10246;50.620;7.232;2023-12-20T09:29:35;8.50;1.70
20174;DHT22;10246;50.620;7.232;2023-12-20T09:32:03;8.50;1.00
20174;DHT22;10246;50.620;7.232;2023-12-20T09:34:30;8.50;1.70
20174;DHT22;10246;50.620;7.232;2023-12-20T09:36:57;8.50;1.00
20174;DHT22;10246;50.620;7.232;2023-12-20T09:39:23;8.50;1.00
20174;DHT22;10246;50.620;7.232;2023-12-20T09:41:59;8.50;1.00
20174;DHT22;10246;50.620;7.232;2023-12-20T09:44:26;8.60;1.00
20174;DHT22;10246;50.620;7.232;2023-12-20T09:46:55;8.60;1.00
20174;DHT22;10246;50.620;7.232;2023-12-20T09:49:23;8.60;1.00
20174;DHT22;10246;50.620;7.232;2023-12-20T09:51:52;8.60;1.00
20174;DHT22;10246;50.620;7.232;2023-12-20T09:54:21;8.70;1.00
20174;DHT22;10246;50.620;7.232;2023-12-20T09:56:47;8.70;1.00
20174;DHT22;10246;50.620;7.232;2023-12-20T09:59:15;8.80;1.00
20174;DHT22;10246;50.620;7.232;2023-12-20T10:01:42;8.80;1.00
20174;DHT22;10246;50.620;7.232;2023-12-20T10:04:10;8.80;1.00
20174;DHT22;10246;50.620;7.232;2023-12-20T10:06:40;8.70;1.00
20174;DHT22;10246;50.620;7.232;2023-12-20T10:09:07;8.80;1.00
20174;DHT22;10246;50.620;7.232;2023-12-20T10:11:35;8.70;1.00
20174;DHT22;10246;50.620;7.232;2023-12-20T10:14:03;8.80;1.00
20174;DHT22;10246;50.620;7.232;2023-12-20T10:16:30;8.70;1.00
20174;DHT22;10246;50.620;7.232;2023-12-20T10:18:58;8.70;1.00
20174;DHT22;10246;50.620;7.232;2023-12-20T10:21:25;8.70;1.00
20174;DHT22;10246;50.620;7.232;2023-12-20T10:23:54;8.80;1.00
20174;DHT22;10246;50.620;7.232;2023-12-20T10:26:24;8.80;1.00
20174;DHT22;10246;50.620;7.232;2023-12-20T10:28:51;8.80;1.00
20174;DHT22;10246;50.620;7.232;2023-12-20T10:31:29;8.80;1.00
20174;DHT22;10246;50.620;7.232;2023-12-20T10:33:57;8.80;1.00
20174;DHT22;10246;50.620;7.232;2023-12-20T10:36:25;8.80;1.00
20174;DHT22;10246;50.620;7.232;2023-12-20T10:38:55;8.80;1.00
20174;DHT22;10246;50.620;7.232;2023-12-20T10:41:25;8.80;1.40
20174;DHT22;10246;50.620;7.232;2023-12-20T10:43:54;8.80;1.00
20174;DHT22;10246;50.620;7.232;2023-12-20T10:46:21;8.80;1.00
20174;DHT22;10246;50.620;7.232;2023-12-20T10:48:51;8.70;1.00
20174;DHT22;10246;50.620;7.232;2023-12-20T10:51:20;8.70;1.00
20174;DHT22;10246;50.620;7.232;2023-12-20T10:53:48;8.80;1.00
20174;DHT22;10246;50.620;7.232;2023-12-20T10:56:18;8.80;1.00
20174;DHT22;10246;50.620;7.232;2023-12-20T10:58:45;8.80;1.00
20174;DHT22;10246;50.620;7.232;2023-12-20T11:01:13;8.70;1.20
20174;DHT22;10246;50.620;7.232;2023-12-20T11:03:46;8.70;1.00
20174;DHT22;10246;50.620;7.232;2023-12-20T11:06:26;8.80;1.00
20174;DHT22;10246;50.620;7.232;2023-12-20T11:09:01;8.80;1.50
20174;DHT22;10246;50.620;7.232;2023-12-20T11:11:42;8.80;1.10
20174;DHT22;10246;50.620;7.232;2023-12-20T11:14:16;8.80;1.00
20174;DHT22;10246;50.620;7.232;2023-12-20T11:16:45;8.80;1.00
20174;DHT22;10246;50.620;7.232;2023-12-20T11:19:12;8.80;1.20
20174;DHT22;10246;50.620;7.232;2023-12-20T11:21:40;8.80;1.00
20174;DHT22;10246;50.620;7.232;2023-12-20T11:24:07;8.80;1.40
20174;DHT22;10246;50.620;7.232;2023-12-20T11:26:34;8.80;1.30
20174;DHT22;10246;50.620;7.232;2023-12-20T11:29:30;8.80;1.60
20174;DHT22;10246;50.620;7.232;2023-12-20T11:31:57;8.80;1.40
20174;DHT22;10246;50.620;7.232;2023-12-20T11:34:27;8.80;1.50
20174;DHT22;10246;50.620;7.232;2023-12-20T11:36:57;8.80;2.80
20174;DHT22;10246;50.620;7.232;2023-12-20T11:39:25;8.80;2.40
20174;DHT22;10246;50.620;7.232;2023-12-20T11:41:54;8.80;1.60
20174;DHT22;10246;50.620;7.232;2023-12-20T11:44:21;8.90;2.10
20174;DHT22;10246;50.620;7.232;2023-12-20T11:46:51;8.90;1.30
20174;DHT22;10246;50.620;7.232;2023-12-20T11:49:23;8.90;1.00
20174;DHT22;10246;50.620;7.232;2023-12-20T11:51:49;9.00;1.20
20174;DHT22;10246;50.620;7.232;2023-12-20T11:54:18;8.90;1.00
20174;DHT22;10246;50.620;7.232;2023-12-20T11:56:45;9.00;1.00
20174;DHT22;10246;50.620;7.232;2023-12-20T11:59:12;8.90;1.00
20174;DHT22;10246;50.620;7.232;2023-12-20T12:01:39;9.00;1.00
20174;DHT22;10246;50.620;7.232;2023-12-20T12:04:07;8.90;1.00
20174;DHT22;10246;50.620;7.232;2023-12-20T12:06:34;8.90;1.20
20174;DHT22;10246;50.620;7.232;2023-12-20T12:09:01;8.90;1.40
20174;DHT22;10246;50.620;7.232;2023-12-20T12:11:29;9.00;1.00
20174;DHT22;10246;50.620;7.232;2023-12-20T12:13:56;9.00;1.00
20174;DHT22;10246;50.620;7.232;2023-12-20T12:16:23;9.20;1.00
20174;DHT22;10246;50.620;7.232;2023-12-20T12:18:55;9.10;1.00
20174;DHT22;10246;50.620;7.232;2023-12-20T12:21:24;9.10;1.00
20174;DHT22;10246;50.620;7.232;2023-12-20T12:23:50;9.00;1.00
20174;DHT22;10246;50.620;7.232;2023-12-20T12:26:18;9.00;1.00
20174;DHT22;10246;50.620;7.232;2023-12-20T12:28:45;9.10;1.00
20174;DHT22;10246;50.620;7.232;2023-12-20T12:31:15;9.10;1.00
20174;DHT22;10246;50.620;7.232;2023-12-20T12:33:42;9.10;1.10
20174;DHT22;10246;50.620;7.232;2023-12-20T12:36:10;9.10;1.00
20174;DHT22;10246;50.620;7.232;2023-12-20T12:38:39;9.10;1.00
20174;DHT22;10246;50.620;7.232;2023-12-20T12:41:05;9.10;1.00
20174;DHT22;10246;50.620;7.232;2023-12-20T12:43:32;9.20;1.00
20174;DHT22;10246;50.620;7.232;2023-12-20T12:46:00;9.20;1.00
20174;DHT22;10246;50.620;7.232;2023-12-20T12:48:27;9.10;1.00
20174;DHT22;10246;50.620;7.232;2023-12-20T12:50:54;9.10;1.60
20174;DHT22;10246;50.620;7.232;2023-12-20T12:53:24;9.10;2.00
20174;DHT22;10246;50.620;7.232;2023-12-20T12:55:53;9.10;1.90
20174;DHT22;10246;50.620;7.232;2023-12-20T12:58:20;9.10;2.30
20174;DHT22;10246;50.620;7.232;2023-12-20T13:00:47;9.00;2.60
20174;DHT22;10246;50.620;7.232;2023-12-20T13:03:14;9.00;2.70
20174;DHT22;10246;50.620;7.232;2023-12-20T13:05:40;9.00;2.60
20174;DHT22;10246;50.620;7.232;2023-12-20T13:08:07;9.00;3.30
20174;DHT22;10246;50.620;7.232;2023-12-20T13:10:35;8.90;3.20
20174;DHT22;10246;50.620;7.232;2023-12-20T13:13:05;8.90;3.50
20174;DHT22;10246;50.620;7.232;2023-12-20T13:15:31;8.90;3.40
20174;DHT22;10246;50.620;7.232;2023-12-20T13:17:58;8.90;3.80
20174;DHT22;10246;50.620;7.232;2023-12-20T13:20:25;8.80;4.40
20174;DHT22;10246;50.620;7.232;2023-12-20T13:22:52;8.80;5.60
20174;DHT22;10246;50.620;7.232;2023-12-20T13:25:18;8.90;6.20
20174;DHT22;10246;50.620;7.232;2023-12-20T13:27:45;8.80;7.00
20174;DHT22;10246;50.620;7.232;2023-12-20T13:30:15;8.70;7.70
20174;DHT22;10246;50.620;7.232;2023-12-20T13:32:42;8.70;8.30
20174;DHT22;10246;50.620;7.232;2023-12-20T13:35:09;8.70;8.50
20174;DHT22;10246;50.620;7.232;2023-12-20T13:37:36;8.70;9.10
20174;DHT22;10246;50.620;7.232;2023-12-20T13:40:04;8.70;9.50
20174;DHT22;10246;50.620;7.232;2023-12-20T13:42:32;8.70;8.70
20174;DHT22;10246;50.620;7.232;2023-12-20T13:44:59;8.70;9.00
20174;DHT22;10246;50.620;7.232;2023-12-20T13:47:32;8.70;9.20
20174;DHT22;10246;50.620;7.232;2023-12-20T13:49:59;8.70;9.70
20174;DHT22;10246;50.620;7.232;2023-12-20T13:52:28;8.70;10.10
20174;DHT22;10246;50.620;7.232;2023-12-20T13:54:54;8.60;9.60
20174;DHT22;10246;50.620;7.232;2023-12-20T13:57:23;8.70;9.40
20174;DHT22;10246;50.620;7.232;2023-12-20T13:59:51;8.60;10.20
20174;DHT22;10246;50.620;7.232;2023-12-20T14:02:19;8.60;10.70
20174;DHT22;10246;50.620;7.232;2023-12-20T14:04:47;8.60;11.40
20174;DHT22;10246;50.620;7.232;2023-12-20T14:07:14;8.60;11.30
20174;DHT22;10246;50.620;7.232;2023-12-20T14:09:41;8.60;11.80
20174;DHT22;10246;50.620;7.232;2023-12-20T14:12:11;8.60;12.20
20174;DHT22;10246;50.620;7.232;2023-12-20T14:14:37;8.60;12.20
20174;DHT22;10246;50.620;7.232;2023-12-20T14:17:04;8.60;11.30
20174;DHT22;10246;50.620;7.232;2023-12-20T14:19:31;8.60;12.20
20174;DHT22;10246;50.620;7.232;2023-12-20T14:22:00;8.60;12.20
20174;DHT22;10246;50.620;7.232;2023-12-20T14:24:27;8.50;12.10
20174;DHT22;10246;50.620;7.232;2023-12-20T14:26:54;8.50;11.80
20174;DHT22;10246;50.620;7.232;2023-12-20T14:29:21;8.50;12.10
20174;DHT22;10246;50.620;7.232;2023-12-20T14:31:47;8.50;12.10
20174;DHT22;10246;50.620;7.232;2023-12-20T14:34:15;8.50;10.30
20174;DHT22;10246;50.620;7.232;2023-12-20T14:36:42;8.50;10.40
20174;DHT22;10246;50.620;7.232;2023-12-20T14:39:10;8.60;11.10
20174;DHT22;10246;50.620;7.232;2023-12-20T14:41:38;8.60;9.70
20174;DHT22;10246;50.620;7.232;2023-12-20T14:44:05;8.60;9.40
20174;DHT22;10246;50.620;7.232;2023-12-20T14:46:32;8.70;9.40
20174;DHT22;10246;50.620;7.232;2023-12-20T14:48:59;8.70;9.20
20174;DHT22;10246;50.620;7.232;2023-12-20T14:51:26;8.60;9.30
20174;DHT22;10246;50.620;7.232;2023-12-20T14:53:55;8.60;8.50
20174;DHT22;10246;50.620;7.232;2023-12-20T14:56:24;8.70;8.30
20174;DHT22;10246;50.620;7.232;2023-12-20T14:58:51;8.60;8.30
20174;DHT22;10246;50.620;7.232;2023-12-20T15:01:18;8.60;9.20
20174;DHT22;10246;50.620;7.232;2023-12-20T15:03:46;8.60;10.30
20174;DHT22;10246;50.620;7.232;2023-12-20T15:06:13;8.70;10.00
20174;DHT22;10246;50.620;7.232;2023-12-20T15:08:40;8.60;9.90
20174;DHT22;10246;50.620;7.232;2023-12-20T15:11:07;8.60;10.40
20174;DHT22;10246;50.620;7.232;2023-12-20T15:13:35;8.60;10.10
20174;DHT22;10246;50.620;7.232;2023-12-20T15:16:02;8.50;10.20
20174;DHT22;10246;50.620;7.232;2023-12-20T15:18:30;8.60;11.30
20174;DHT22;10246;50.620;7.232;2023-12-20T15:20:57;8.60;10.90
20174;DHT22;10246;50.620;7.232;2023-12-20T15:23:24;8.60;10.80
20174;DHT22;10246;50.620;7.232;2023-12-20T15:25:54;8.60;11.30
20174;DHT22;10246;50.620;7.232;2023-12-20T15:28:21;8.60;11.30
20174;DHT22;10246;50.620;7.232;2023-12-20T15:30:49;8.60;10.90
20174;DHT22;10246;50.620;7.232;2023-12-20T15:33:15;8.60;10.70
20174;DHT22;10246;50.620;7.232;2023-12-20T15:35:45;8.60;11.20
20174;DHT22;10246;50.620;7.232;2023-12-20T15:38:12;8.60;11.80
20174;DHT22;10246;50.620;7.232;2023-12-20T15:40:40;8.60;11.40
20174;DHT22;10246;50.620;7.232;2023-12-20T15:43:07;8.60;11.00
20174;DHT22;10246;50.620;7.232;2023-12-20T15:45:34;8.70;10.90
20174;DHT22;10246;50.620;7.232;2023-12-20T15:48:03;8.70;10.70
20174;DHT22;10246;50.620;7.232;2023-12-20T15:50:31;8.70;10.70
20174;DHT22;10246;50.620;7.232;2023-12-20T15:52:59;8.60;10.50
20174;DHT22;10246;50.620;7.232;2023-12-20T15:55:26;8.70;10.90